createdAt,value
2019-02-24T00:01:51.407Z,25.40
2019-02-24T00:04:20.332Z,25.57
2019-02-24T00:06:52.879Z,26.30
2019-02-24T00:09:23.648Z,25.67
2019-02-24T00:11:53.460Z,25.60
2019-02-24T00:14:23.219Z,25.57
2019-02-24T00:16:58.514Z,25.80
2019-02-24T00:19:27.609Z,26.20
2019-02-24T00:21:56.611Z,26.50
2019-02-24T00:24:36.564Z,26.47
2019-02-24T00:27:07.934Z,27.00
2019-02-24T00:29:38.910Z,27.43
2019-02-24T00:32:31.545Z,26.70
2019-02-24T00:35:00.867Z,26.60
2019-02-24T00:37:29.759Z,27.53
2019-02-24T00:40:00.351Z,26.13
2019-02-24T00:42:29.426Z,28.10
2019-02-24T00:45:00.145Z,26.63
2019-02-24T00:47:29.222Z,26.33
2019-02-24T00:49:58.127Z,27.10
2019-02-24T00:52:27.197Z,27.10
2019-02-24T00:58:05.502Z,26.23
2019-02-24T01:00:38.867Z,26.37
2019-02-24T01:03:10.272Z,25.57
2019-02-24T01:05:39.407Z,26.23
2019-02-24T01:08:09.160Z,27.23
2019-02-24T01:11:00.187Z,27.07
2019-02-24T01:13:29.091Z,26.13
2019-02-24T01:15:57.969Z,27.47
2019-02-24T01:22:09.269Z,24.53
2019-02-24T01:24:38.198Z,25.97
2019-02-24T01:27:34.849Z,25.10
2019-02-24T01:30:10.880Z,25.27
2019-02-24T01:32:41.691Z,24.20
2019-02-24T01:35:10.929Z,25.30
2019-02-24T01:38:13.760Z,25.30
2019-02-24T01:40:42.488Z,25.53
2019-02-24T01:46:28.017Z,24.20
2019-02-24T01:48:58.964Z,24.37
2019-02-24T01:51:28.394Z,24.13
2019-02-24T01:54:14.778Z,23.90
2019-02-24T01:57:07.510Z,23.90
2019-02-24T01:59:37.374Z,22.80
2019-02-24T02:02:10.902Z,24.97
2019-02-24T02:04:46.016Z,23.20
2019-02-24T02:07:29.989Z,23.17
2019-02-24T02:09:59.667Z,21.73
2019-02-24T02:12:31.629Z,23.13
2019-02-24T02:15:02.087Z,21.63
2019-02-24T02:17:32.566Z,22.03
2019-02-24T02:20:13.423Z,20.60
2019-02-24T02:26:19.187Z,20.30
2019-02-24T02:28:48.138Z,20.10
2019-02-24T02:34:48.328Z,20.20
2019-02-24T02:37:21.435Z,20.47
2019-02-24T02:39:52.349Z,20.00
2019-02-24T02:42:21.338Z,19.00
2019-02-24T02:48:10.841Z,19.40
2019-02-24T02:51:04.099Z,18.73
2019-02-24T02:54:05.199Z,19.20
2019-02-24T02:56:36.810Z,18.63
2019-02-24T03:04:20.766Z,17.90
2019-02-24T03:06:58.233Z,17.27
2019-02-24T03:09:31.112Z,17.13
2019-02-24T03:12:02.571Z,16.47
2019-02-24T03:14:31.522Z,17.10
2019-02-24T03:17:00.452Z,16.23
2019-02-24T03:22:18.973Z,15.90
2019-02-24T03:24:47.776Z,16.87
2019-02-24T03:27:16.781Z,14.67
2019-02-24T03:29:45.747Z,15.63
2019-02-24T03:32:34.126Z,14.97
2019-02-24T03:35:08.178Z,15.57
2019-02-24T03:37:40.571Z,15.93
2019-02-24T03:40:11.429Z,14.13
2019-02-24T03:42:43.311Z,15.23
2019-02-24T03:45:13.830Z,14.70
2019-02-24T03:47:42.662Z,15.40
2019-02-24T03:50:11.707Z,14.73
2019-02-24T03:52:43.852Z,15.17
2019-02-24T03:55:12.979Z,14.17
2019-02-24T03:57:41.864Z,14.97
2019-02-24T04:00:13.246Z,14.47
2019-02-24T04:06:07.358Z,13.17
2019-02-24T04:08:37.367Z,13.33
2019-02-24T04:11:06.400Z,14.20
2019-02-24T04:13:53.002Z,13.43
2019-02-24T04:16:25.094Z,12.77
2019-02-24T04:18:53.970Z,13.27
2019-02-24T04:21:29.844Z,12.63
2019-02-24T04:23:59.667Z,12.90
2019-02-24T04:26:52.989Z,13.03
2019-02-24T04:29:26.798Z,12.83
2019-02-24T04:32:08.969Z,12.00
2019-02-24T04:34:38.841Z,12.30
2019-02-24T04:37:23.782Z,12.67
2019-02-24T04:40:03.406Z,11.60
2019-02-24T04:42:32.754Z,12.60
2019-02-24T04:45:06.056Z,11.90
2019-02-24T04:50:45.247Z,11.73
2019-02-24T04:53:37.262Z,11.90
2019-02-24T04:56:16.107Z,11.33
2019-02-24T04:58:56.883Z,12.00
2019-02-24T05:01:28.306Z,11.47
2019-02-24T05:03:57.258Z,11.60
2019-02-24T05:06:29.191Z,10.87
2019-02-24T05:08:59.394Z,11.50
2019-02-24T05:11:48.599Z,11.13
2019-02-24T05:14:09.268Z,11.23
2019-02-24T05:17:10.661Z,11.97
2019-02-24T05:20:04.614Z,10.90
2019-02-24T05:22:37.583Z,10.17
2019-02-24T05:25:11.749Z,10.87
2019-02-24T05:27:48.352Z,10.80
2019-02-24T05:30:32.346Z,10.50
2019-02-24T05:33:00.481Z,10.60
2019-02-24T05:35:40.097Z,10.67
2019-02-24T05:38:11.037Z,10.07
2019-02-24T05:40:41.309Z,10.03
2019-02-24T05:43:12.346Z,9.57
2019-02-24T05:48:26.014Z,9.80
2019-02-24T05:51:00.706Z,10.00
2019-02-24T05:53:40.576Z,9.53
2019-02-24T05:56:17.556Z,10.00
2019-02-24T05:58:54.705Z,9.57
2019-02-24T06:01:51.008Z,9.37
2019-02-24T06:04:25.185Z,9.60
2019-02-24T06:07:24.357Z,9.30
2019-02-24T06:10:01.737Z,9.37
2019-02-24T06:12:38.912Z,9.30
2019-02-24T06:15:32.783Z,8.93
2019-02-24T06:18:02.379Z,8.63
2019-02-24T06:20:43.363Z,8.80
2019-02-24T06:23:12.267Z,8.23
2019-02-24T06:25:46.160Z,8.93
2019-02-24T06:28:16.862Z,8.33
2019-02-24T06:30:46.889Z,8.67
2019-02-24T06:33:21.204Z,8.53
2019-02-24T06:35:53.383Z,8.30
2019-02-24T06:38:22.213Z,8.77
2019-02-24T06:40:51.839Z,8.40
2019-02-24T06:43:20.700Z,7.93
2019-02-24T06:45:51.960Z,8.37
2019-02-24T06:48:42.991Z,7.83
2019-02-24T06:51:13.172Z,7.87
2019-02-24T06:53:43.228Z,7.97
2019-02-24T06:56:13.952Z,8.57
2019-02-24T06:58:46.662Z,7.53
2019-02-24T08:45:22.412Z,12.63
2019-02-24T08:48:08.838Z,11.87
2019-02-24T08:50:55.047Z,11.97
2019-02-24T08:53:37.099Z,13.30
2019-02-24T08:55:58.013Z,13.03
2019-02-24T08:58:38.065Z,13.43
2019-02-24T09:01:12.363Z,13.50
2019-02-24T09:03:41.479Z,12.83
2019-02-24T09:06:12.629Z,13.60
2019-02-24T09:08:42.744Z,15.10
2019-02-24T09:11:15.442Z,14.33
2019-02-24T09:13:48.963Z,14.67
2019-02-24T09:16:28.957Z,15.50
2019-02-24T09:19:03.970Z,15.30
2019-02-24T09:21:46.909Z,15.90
2019-02-24T09:24:18.019Z,18.07
2019-02-24T09:26:48.748Z,18.70
2019-02-24T09:29:17.721Z,19.67
2019-02-24T09:31:55.903Z,21.20
2019-02-24T09:34:27.072Z,20.50
2019-02-24T09:36:57.305Z,20.63
2019-02-24T09:39:27.956Z,21.83
2019-02-24T09:41:57.238Z,21.43
2019-02-24T09:44:26.491Z,21.37
2019-02-24T09:46:55.909Z,22.00
2019-02-24T09:49:24.926Z,23.10
2019-02-24T09:51:56.483Z,22.80
2019-02-24T09:54:25.723Z,23.53
2019-02-24T09:56:57.066Z,24.63
2019-02-24T09:59:27.042Z,26.90
2019-02-24T10:01:56.813Z,25.30
2019-02-24T10:04:25.713Z,26.13
2019-02-24T10:06:54.721Z,27.33
2019-02-24T10:09:23.916Z,27.13
2019-02-24T10:11:53.203Z,26.13
2019-02-24T10:14:22.217Z,26.80
2019-02-24T10:16:51.166Z,26.60
2019-02-24T10:19:20.148Z,25.93
2019-02-24T10:21:49.092Z,25.40
2019-02-24T10:24:18.169Z,25.57
2019-02-24T10:26:47.509Z,24.60
2019-02-24T10:29:19.368Z,23.13
2019-02-24T10:31:55.562Z,22.33
2019-02-24T10:34:24.598Z,21.43
2019-02-24T10:36:54.014Z,20.40
2019-02-24T10:39:29.903Z,19.80
2019-02-24T10:41:59.106Z,19.43
2019-02-24T10:44:28.944Z,18.90
2019-02-24T10:46:58.220Z,18.40
2019-02-24T10:49:29.185Z,17.07
2019-02-24T10:51:58.132Z,17.17
2019-02-24T10:54:27.010Z,16.30
2019-02-24T10:56:59.254Z,15.10
2019-02-24T10:59:29.781Z,15.27
2019-02-24T11:02:00.624Z,15.93
2019-02-24T11:04:38.586Z,15.90
2019-02-24T11:07:13.762Z,13.97
2019-02-24T11:09:42.756Z,14.60
2019-02-24T11:12:11.668Z,13.97
2019-02-24T11:14:40.746Z,13.97
2019-02-24T11:17:12.883Z,13.63
2019-02-24T11:19:41.919Z,12.97
2019-02-24T11:22:13.413Z,12.53
2019-02-24T11:24:42.401Z,12.93
2019-02-24T11:27:11.333Z,12.30
2019-02-24T11:29:46.198Z,12.60
2019-02-24T11:32:15.143Z,12.70
2019-02-24T11:34:44.079Z,12.63
2019-02-24T11:37:13.403Z,12.80
2019-02-24T11:39:43.047Z,12.70
2019-02-24T11:42:14.494Z,12.10
2019-02-24T11:44:47.540Z,12.17
2019-02-24T11:47:16.482Z,12.97
2019-02-24T11:49:45.963Z,11.40
2019-02-24T11:52:16.445Z,11.20
2019-02-24T11:54:45.507Z,10.50
2019-02-24T11:57:14.482Z,9.93
2019-02-24T11:59:43.460Z,10.10
2019-02-24T12:02:22.230Z,9.50
2019-02-24T12:04:51.446Z,9.03
2019-02-24T12:07:21.166Z,9.30
2019-02-24T12:09:51.580Z,8.83
2019-02-24T12:12:20.778Z,8.40
2019-02-24T12:14:50.248Z,8.70
2019-02-24T12:17:20.593Z,8.63
2019-02-24T12:19:49.736Z,9.00
2019-02-24T12:22:20.299Z,8.37
2019-02-24T12:24:51.394Z,8.57
2019-02-24T12:27:20.337Z,7.70
2019-02-24T12:29:49.371Z,7.87
2019-02-24T12:32:24.985Z,8.33
2019-02-24T12:34:53.930Z,8.20
2019-02-24T12:37:26.678Z,8.23
2019-02-24T12:39:59.117Z,8.17
2019-02-24T12:42:29.129Z,8.63
2019-02-24T12:44:59.304Z,7.87
2019-02-24T12:47:33.873Z,7.43
2019-02-24T12:50:03.752Z,7.47
2019-02-24T12:52:33.299Z,7.53
2019-02-24T12:55:02.361Z,6.30
2019-02-24T12:57:31.290Z,7.00
2019-02-24T13:00:00.419Z,7.13
2019-02-24T13:02:31.070Z,6.57
2019-02-24T13:05:00.495Z,6.53
2019-02-24T13:07:30.336Z,5.83
2019-02-24T13:09:59.683Z,6.53
2019-02-24T13:12:29.460Z,6.50
2019-02-24T13:15:03.414Z,6.07
2019-02-24T13:17:34.080Z,6.10
2019-02-24T13:20:03.580Z,5.63
2019-02-24T13:22:36.057Z,5.67
2019-02-24T13:25:28.099Z,6.50
2019-02-24T13:27:58.140Z,6.50
2019-02-24T13:30:31.270Z,6.00
2019-02-24T13:33:13.654Z,6.20
2019-02-24T13:35:42.953Z,6.13
2019-02-24T13:38:15.442Z,6.43
2019-02-24T13:40:45.748Z,6.40
2019-02-24T13:43:16.676Z,5.70
2019-02-24T13:45:45.969Z,6.00
2019-02-24T13:48:16.256Z,6.10
2019-02-24T13:50:48.071Z,6.13
2019-02-24T13:53:17.621Z,6.40
2019-02-24T13:55:47.126Z,6.67
2019-02-24T13:58:17.763Z,6.90
2019-02-24T14:00:57.192Z,6.70
2019-02-24T14:03:26.240Z,7.23
2019-02-24T14:05:55.572Z,7.63
2019-02-24T14:08:27.701Z,6.90
2019-02-24T14:11:04.505Z,7.07
2019-02-24T14:13:34.400Z,7.00
2019-02-24T14:16:08.206Z,7.60
2019-02-24T14:18:40.743Z,7.43
2019-02-24T14:21:11.864Z,7.23
2019-02-24T14:23:41.220Z,7.43
2019-02-24T14:26:11.889Z,7.53
2019-02-24T14:28:46.182Z,7.73
2019-02-24T14:31:17.876Z,6.97
2019-02-24T14:33:47.788Z,7.27
2019-02-24T14:36:18.160Z,8.10
2019-02-24T14:38:48.878Z,7.27
2019-02-24T14:41:18.636Z,7.30
2019-02-24T14:43:53.967Z,7.57
2019-02-24T14:46:37.817Z,7.60
2019-02-24T14:49:10.788Z,7.67
2019-02-24T14:51:41.608Z,7.20
2019-02-24T14:54:11.594Z,7.60
2019-02-24T14:56:40.897Z,7.30
2019-02-24T14:59:10.631Z,7.50
2019-02-24T15:01:42.604Z,7.70
2019-02-24T15:04:16.120Z,7.20
2019-02-24T15:06:46.630Z,7.10
2019-02-24T15:09:18.053Z,7.60
2019-02-24T15:11:50.353Z,7.60
2019-02-24T15:14:23.370Z,7.83
2019-02-24T15:16:52.712Z,7.30
2019-02-24T15:19:29.757Z,7.60
2019-02-24T15:22:03.374Z,6.70
2019-02-24T15:24:32.619Z,6.50
2019-02-24T15:27:11.386Z,6.90
2019-02-24T15:29:41.432Z,6.17
2019-02-24T15:32:10.713Z,6.80
2019-02-24T15:34:43.391Z,6.70
2019-02-24T15:37:14.637Z,7.27
2019-02-24T15:39:46.277Z,6.87
2019-02-24T15:42:19.274Z,6.33
2019-02-24T15:44:55.981Z,6.83
2019-02-24T15:47:28.145Z,6.30
2019-02-24T15:49:58.241Z,6.07
2019-02-24T15:52:28.832Z,6.17
2019-02-24T15:54:58.459Z,6.57
2019-02-24T15:57:32.480Z,5.80
2019-02-24T16:00:07.707Z,6.13
2019-02-24T16:02:40.338Z,5.80
2019-02-24T16:05:11.532Z,5.53
2019-02-24T16:07:41.114Z,6.10
2019-02-24T16:10:14.110Z,5.57
2019-02-24T16:12:45.760Z,6.27
2019-02-24T16:15:17.840Z,5.37
2019-02-24T16:17:48.155Z,5.43
2019-02-24T16:20:21.819Z,5.03
2019-02-24T16:22:53.933Z,6.40
2019-02-24T16:25:30.260Z,6.50
2019-02-24T16:28:02.298Z,7.03
2019-02-24T16:30:32.860Z,6.50
2019-02-24T16:33:10.513Z,6.97
2019-02-24T16:35:41.059Z,6.57
2019-02-24T16:40:57.451Z,6.47
2019-02-24T16:43:30.755Z,6.30
2019-02-24T16:45:59.939Z,5.90
2019-02-24T16:48:29.708Z,6.17
2019-02-24T16:50:58.874Z,42.63
2019-02-24T16:53:28.503Z,23.43
2019-02-24T16:55:57.378Z,22.30
2019-02-24T16:58:26.244Z,23.97
2019-02-24T17:00:58.394Z,19.30
2019-02-24T17:03:42.587Z,17.20
2019-02-24T17:06:19.113Z,21.77
2019-02-24T17:09:01.303Z,16.70
2019-02-24T17:11:23.492Z,16.30
2019-02-24T17:13:52.380Z,13.97
2019-02-24T17:16:23.163Z,13.23
2019-02-24T17:19:00.010Z,12.43
2019-02-24T17:21:33.810Z,12.73
2019-02-24T17:24:06.662Z,12.30
2019-02-24T17:26:35.717Z,11.50
2019-02-24T17:29:19.101Z,10.87
2019-02-24T17:31:53.080Z,10.37
2019-02-24T17:34:24.870Z,10.60
2019-02-24T17:36:55.947Z,10.10
2019-02-24T17:39:31.558Z,10.03
2019-02-24T17:47:30.405Z,9.47
2019-02-24T17:49:59.229Z,9.23
2019-02-24T17:52:45.588Z,9.83
2019-02-24T17:55:16.598Z,9.47
2019-02-24T17:57:49.177Z,9.53
2019-02-24T18:00:22.554Z,9.10
2019-02-24T18:02:56.865Z,8.60
2019-02-24T18:05:25.792Z,9.40
2019-02-24T18:07:56.969Z,8.70
2019-02-24T18:10:26.852Z,8.73
2019-02-24T18:12:57.866Z,8.20
2019-02-24T18:15:28.474Z,8.30
2019-02-24T18:17:57.450Z,8.57
2019-02-24T18:20:26.407Z,8.00
2019-02-24T18:22:58.669Z,8.33
2019-02-24T18:25:30.061Z,8.77
2019-02-24T18:27:59.151Z,7.87
2019-02-24T18:30:35.824Z,7.33
2019-02-24T18:33:06.285Z,9.43
2019-02-24T18:35:35.932Z,7.93
2019-02-24T18:38:08.118Z,8.07
2019-02-24T18:40:40.406Z,7.27
2019-02-24T18:43:16.243Z,7.87
2019-02-24T18:45:48.245Z,8.17
2019-02-24T18:48:18.935Z,8.07
2019-02-24T18:50:55.066Z,7.30
2019-02-24T18:56:25.195Z,7.27
2019-02-24T18:59:00.118Z,7.50
2019-02-24T19:01:26.557Z,7.50
2019-02-24T19:04:08.046Z,7.37
2019-02-24T19:06:39.403Z,7.63
2019-02-24T19:09:12.698Z,7.57
2019-02-24T19:11:47.054Z,7.10
2019-02-24T19:14:20.322Z,6.83
2019-02-24T19:16:57.221Z,7.07
2019-02-24T19:19:29.725Z,7.40
2019-02-24T19:21:59.936Z,7.10
2019-02-24T19:24:31.090Z,6.73
2019-02-24T19:27:07.082Z,7.40
2019-02-24T19:29:36.191Z,7.77
2019-02-24T19:32:05.028Z,7.30
2019-02-24T19:34:33.896Z,7.80
2019-02-24T19:37:10.978Z,7.47
2019-02-24T19:39:45.652Z,7.43
2019-02-24T19:42:27.443Z,7.80
2019-02-24T19:45:02.904Z,6.97
2019-02-24T19:47:34.203Z,6.90
2019-02-24T19:55:40.457Z,7.70
2019-02-24T19:58:10.759Z,8.03
2019-02-24T20:00:43.392Z,8.00
2019-02-24T20:03:16.967Z,7.77
2019-02-24T20:05:49.154Z,7.40
2019-02-24T20:08:38.277Z,7.20
2019-02-24T20:11:15.542Z,7.70
2019-02-24T20:13:45.000Z,8.07
2019-02-24T20:16:15.988Z,8.20
2019-02-24T20:18:45.245Z,7.23
2019-02-24T20:21:15.579Z,7.60
2019-02-24T20:23:44.916Z,8.00
2019-02-24T20:26:28.330Z,7.97
2019-02-24T20:28:52.894Z,8.50
2019-02-24T20:31:21.882Z,7.73
2019-02-24T20:33:56.434Z,7.80
2019-02-24T20:36:27.876Z,7.83
2019-02-24T20:39:01.520Z,8.13
2019-02-24T20:41:32.000Z,7.87
2019-02-24T20:44:07.941Z,9.10
2019-02-24T20:46:37.236Z,8.67
2019-02-24T20:52:43.089Z,8.57
2019-02-24T20:55:16.901Z,8.13
2019-02-24T20:57:53.536Z,8.67
2019-02-24T21:00:28.050Z,8.70
2019-02-24T21:02:57.519Z,8.67
2019-02-24T21:08:02.521Z,9.00
2019-02-24T21:10:31.567Z,8.60
2019-02-24T21:13:02.602Z,9.20
2019-02-24T21:15:34.935Z,8.70
2019-02-24T21:20:46.771Z,8.97
2019-02-24T21:23:16.064Z,9.13
2019-02-24T21:31:10.723Z,10.73
2019-02-24T21:33:44.971Z,11.13
2019-02-24T21:36:19.356Z,11.27
2019-02-24T21:38:50.001Z,11.40
2019-02-24T21:41:22.565Z,12.73
2019-02-24T21:43:56.659Z,13.63
2019-02-24T21:46:29.304Z,15.10
2019-02-24T21:49:13.036Z,14.87
2019-02-24T21:51:46.400Z,16.87
2019-02-24T21:54:17.775Z,17.80
2019-02-24T21:56:46.623Z,18.13
2019-02-24T21:59:25.380Z,18.30
2019-02-24T22:01:54.577Z,20.57
2019-02-24T22:04:31.883Z,19.87
2019-02-24T22:07:02.919Z,22.57
2019-02-24T22:09:34.357Z,20.83
2019-02-24T22:12:05.012Z,21.30
2019-02-24T22:14:34.087Z,22.77
2019-02-24T22:17:05.731Z,22.27
2019-02-24T22:19:34.547Z,22.70
2019-02-24T22:22:03.436Z,24.23
2019-02-24T22:24:32.428Z,24.00
2019-02-24T22:27:02.909Z,25.23
2019-02-24T22:29:35.025Z,25.00
2019-02-24T22:32:04.004Z,26.63
2019-02-24T22:34:39.827Z,26.23
2019-02-24T22:37:08.771Z,25.40
2019-02-24T22:39:37.799Z,27.40
2019-02-24T22:42:06.672Z,27.87
2019-02-24T22:44:42.935Z,28.83
2019-02-24T22:47:11.758Z,29.37
2019-02-24T22:49:40.743Z,30.83
2019-02-24T22:52:09.779Z,32.17
2019-02-24T22:54:40.170Z,34.23
2019-02-24T22:57:09.156Z,35.70
2019-02-24T22:59:41.358Z,35.83
2019-02-24T23:02:16.171Z,36.33
2019-02-24T23:04:51.683Z,37.27
2019-02-24T23:07:22.996Z,37.40
2019-02-24T23:09:52.578Z,38.63
2019-02-24T23:15:19.839Z,39.43
2019-02-24T23:18:00.357Z,40.40
2019-02-24T23:20:32.032Z,40.60
2019-02-24T23:25:54.227Z,43.47
2019-02-24T23:28:26.025Z,41.97
2019-02-24T23:30:59.160Z,43.40
2019-02-24T23:33:30.539Z,43.73
2019-02-24T23:36:08.969Z,43.47
2019-02-24T23:38:50.298Z,44.40
2019-02-24T23:41:22.717Z,45.03
2019-02-24T23:43:54.370Z,43.73
2019-02-24T23:46:41.165Z,45.47
2019-02-24T23:49:11.509Z,45.90
2019-02-24T23:51:42.989Z,45.20
2019-02-24T23:54:26.175Z,46.33
2019-02-24T23:57:03.852Z,46.17
2019-02-24T23:59:31.004Z,46.50
